Xunlong5 — BYGW — position and weather

sailwx.info

Track history (hours):
 
Tides and Currents Weather Stations Pressure Air Temp Water Temp Dewpoint Dewpoint Depression Visibility Wind Speed Wind Dir Waves Ship Positions

Xunlong5

Last reported at 2014-Dec-22 09:23 UTC. Time now 2014-Dec-22 09:57 UTC.
Position N 22°12' E 113°34'.

Length 34 m; draft 1.4 m.

Type: High speed craft. MMSI: 413471870.

Date/timePositionNaut miles runAvg speedWind from/ knotsBaromVisibWave heightAir tempDewpointWater temp
2014-Dec-22 09:23N 22°12' E 113°34'1518.0
2014-Dec-22 08:32N 22°25' E 113°43'1 0.5
2014-Dec-22 07:17N 22°24' E 113°43'1519.7
2014-Dec-22 06:32N 22°12' E 113°34'1514.5
2014-Dec-22 05:32N 22°24' E 113°42'3 2.3
2014-Dec-22 04:23N 22°26' E 113°44'1822.0
2014-Dec-22 03:33N 22°10' E 113°35'1515.1
2014-Dec-22 02:33N 22°23' E 113°42'9 7.2
2014-Dec-22 01:15N 22°32' E 113°46'1927.8
2014-Dec-22 00:33N 22°14' E 113°39'5 2.4
2014-Dec-21 22:17N 22°10' E 113°35'0 0.0
2014-Dec-21 21:29N 22°10' E 113°35'0 0.0
2014-Dec-21 20:29N 22°10' E 113°35'0 0.0
2014-Dec-21 19:29N 22°10' E 113°35'0 0.0
2014-Dec-21 18:29N 22°10' E 113°35'0 0.0
2014-Dec-21 17:05N 22°10' E 113°35'0 0.0
2014-Dec-21 16:29N 22°10' E 113°35'0 0.0
2014-Dec-21 15:29N 22°10' E 113°35'0 0.0
2014-Dec-21 14:29N 22°10' E 113°35'0 0.0
2014-Dec-21 13:29N 22°10' E 113°35'0 0.0
2014-Dec-21 12:27N 22°10' E 113°35'1820.6
2014-Dec-21 11:33N 22°26' E 113°44'2 1.6
2014-Dec-21 10:29N 22°28' E 113°44'1920.1
2014-Dec-21 09:33N 22°12' E 113°34'1817.4
2014-Dec-21 08:33N 22°27' E 113°44'1 0.6
2014-Dec-21 07:31N 22°27' E 113°44'1814.7
2014-Dec-21 06:17N 22°12' E 113°34'1722.9
2014-Dec-21 05:33N 22°26' E 113°43'1 1.0
2014-Dec-21 04:29N 22°27' E 113°44'1920.3
2014-Dec-21 03:33N 22°10' E 113°35'1514.7
2014-Dec-21 02:31N 22°24' E 113°42'6 4.8
2014-Dec-21 01:10N 22°29' E 113°45'1727.3
2014-Dec-21 00:33N 22°13' E 113°39'5 4.7
2014-Dec-20 23:26N 22°10' E 113°35'0 0.0
2014-Dec-20 21:31N 22°10' E 113°35'0 0.0
2014-Dec-20 20:13N 22°10' E 113°35'0 0.0
2014-Dec-20 19:31N 22°10' E 113°35'0 0.0
2014-Dec-20 18:25N 22°10' E 113°35'0 0.0
2014-Dec-20 17:25N 22°10' E 113°35'0 0.0
2014-Dec-20 16:31N 22°10' E 113°35'0 0.0
2014-Dec-20 15:31N 22°10' E 113°35'0 0.0
2014-Dec-20 14:32N 22°10' E 113°35'0 0.0
2014-Dec-20 13:31N 22°10' E 113°35'0 0.0
2014-Dec-20 12:33N 22°10' E 113°35'2020.0
2014-Dec-20 11:34N 22°27' E 113°44'0 0.2
2014-Dec-20 10:33N 22°27' E 113°44'1817.8
2014-Dec-20 09:31N 22°12' E 113°34'1717.6
2014-Dec-20 08:33N 22°26' E 113°44'1 0.8
2014-Dec-20 07:25N 22°27' E 113°44'1820.9
2014-Dec-20 06:33N 22°12' E 113°34'1615.7
2014-Dec-20 05:32N 22°25' E 113°43'2 1.7
2014-Dec-20 04:24N 22°27' E 113°44'1922.4
2014-Dec-20 03:33N 22°10' E 113°35'1514.4
2014-Dec-20 02:32N 22°23' E 113°42'13 6.4
2014-Dec-20 00:33N 22°11' E 113°38'3 2.8
2014-Dec-19 23:24N 22°10' E 113°35'0 0.0
2014-Dec-19 22:24N 22°10' E 113°35'0 0.0
2014-Dec-19 21:30N 22°10' E 113°35'0 0.0
2014-Dec-19 20:30N 22°10' E 113°35'0 0.0
2014-Dec-19 19:30N 22°10' E 113°35'0 0.0
2014-Dec-19 18:12N 22°10' E 113°35'0 0.0
2014-Dec-19 17:30N 22°10' E 113°35'0 0.0
2014-Dec-19 16:30N 22°10' E 113°35'0 0.0
2014-Dec-19 15:30N 22°10' E 113°35'0 0.0
2014-Dec-19 14:30N 22°10' E 113°35'0 0.0
2014-Dec-19 13:10N 22°10' E 113°35'0 0.0
2014-Dec-19 12:32N 22°10' E 113°35'2020.1
2014-Dec-19 11:33N 22°28' E 113°44'7 5.5
2014-Dec-19 10:16N 22°21' E 113°41'1116.1
2014-Dec-19 09:33N 22°12' E 113°34'1717.2
2014-Dec-19 08:33N 22°26' E 113°44'9 6.0
2014-Dec-19 07:06N 22°18' E 113°40'915.9
2014-Dec-19 06:33N 22°12' E 113°34'1916.3
2014-Dec-19 05:24N 22°28' E 113°44'2010.7
2014-Dec-19 03:33N 22°10' E 113°36'3 0.9
2014-Dec-19 00:33N 22°11' E 113°38'4 3.1
2014-Dec-18 23:21N 22°10' E 113°35'0 0.0
2014-Dec-18 22:33N 22°10' E 113°35'0 0.0
2014-Dec-18 21:27N 22°10' E 113°35'0 0.0
2014-Dec-18 20:27N 22°10' E 113°35'0 0.0
2014-Dec-18 19:33N 22°10' E 113°35'0 0.0
2014-Dec-18 18:21N 22°10' E 113°35'0 0.0
2014-Dec-18 17:33N 22°10' E 113°35'0 0.0
2014-Dec-18 16:33N 22°10' E 113°35'0 0.0
2014-Dec-18 15:27N 22°10' E 113°35'0 0.0
2014-Dec-18 14:21N 22°10' E 113°35'0 0.0
2014-Dec-18 13:09N 22°10' E 113°35'0 0.0
2014-Dec-18 12:27N 22°10' E 113°35'1819.8
2014-Dec-18 11:33N 22°26' E 113°44'2 1.6
2014-Dec-18 10:31N 22°27' E 113°44'1819.0
2014-Dec-18 09:33N 22°12' E 113°34'1818.5
2014-Dec-18 08:33N 22°27' E 113°44'8 6.1
2014-Dec-18 07:17N 22°20' E 113°41'1114.5
2014-Dec-18 06:33N 22°12' E 113°34'1818.0
2014-Dec-18 05:33N 22°27' E 113°44'4 3.2
2014-Dec-18 04:18N 22°23' E 113°42'1520.1
2014-Dec-18 03:33N 22°10' E 113°35'1615.5
2014-Dec-18 02:33N 22°24' E 113°42'9 7.4
2014-Dec-18 01:20N 22°32' E 113°46'2026.3
2014-Dec-18 00:34N 22°13' E 113°39'5 4.6
2014-Dec-17 23:31N 22°10' E 113°35'0 0.0
2014-Dec-17 21:19N 22°10' E 113°35'0 0.0
2014-Dec-17 20:25N 22°10' E 113°35'0 0.0
2014-Dec-17 19:31N 22°10' E 113°35'0 0.0
2014-Dec-17 18:31N 22°10' E 113°35'0 0.0
2014-Dec-17 17:31N 22°10' E 113°35'0 0.0
2014-Dec-17 16:31N 22°10' E 113°35'0 0.0
2014-Dec-17 15:31N 22°10' E 113°35'0 0.0
2014-Dec-17 14:25N 22°10' E 113°35'0 0.0
2014-Dec-17 13:31N 22°10' E 113°35'0 0.0
2014-Dec-17 12:19N 22°10' E 113°35'1620.7
2014-Dec-17 11:33N 22°24' E 113°43'7 7.3
2014-Dec-17 10:33N 22°31' E 113°46'2222.2
2014-Dec-17 09:33N 22°12' E 113°34'1515.2
2014-Dec-17 08:33N 22°24' E 113°43'4 3.3
2014-Dec-17 07:26N 22°28' E 113°44'1921.0
2014-Dec-17 06:33N 22°12' E 113°34'1515.3
2014-Dec-17 05:33N 22°24' E 113°43'4 3.3
2014-Dec-17 04:30N 22°28' E 113°44'2020.4
2014-Dec-17 03:32N 22°10' E 113°35'1515.4
2014-Dec-17 02:33N 22°23' E 113°43'11 9.9
2014-Dec-17 01:25N 22°34' E 113°47'2225.6
2014-Dec-17 00:33N 22°13' E 113°39'5 4.4
2014-Dec-16 23:29N 22°10' E 113°35'0 0.0
2014-Dec-16 22:29N 22°10' E 113°35'0 0.0
2014-Dec-16 21:11N 22°10' E 113°35'0 0.0
2014-Dec-16 20:29N 22°10' E 113°35'0 0.0
2014-Dec-16 19:29N 22°10' E 113°35'0 0.0
2014-Dec-16 18:29N 22°10' E 113°35'0 0.0
2014-Dec-16 17:29N 22°10' E 113°35'0 0.0
2014-Dec-16 16:23N 22°10' E 113°35'0 0.0
2014-Dec-16 15:23N 22°10' E 113°35'0 0.0
2014-Dec-16 14:29N 22°10' E 113°35'0 0.0
2014-Dec-16 13:29N 22°10' E 113°35'0 0.0
2014-Dec-16 12:33N 22°10' E 113°35'2121.4
2014-Dec-16 11:33N 22°29' E 113°46'6 5.3
2014-Dec-16 10:28N 22°24' E 113°42'1415.7
2014-Dec-16 09:33N 22°12' E 113°34'2120.6
2014-Dec-16 08:34N 22°29' E 113°45'2 1.9
2014-Dec-16 07:32N 22°28' E 113°44'1916.5
2014-Dec-16 06:25N 22°12' E 113°34'1619.1
2014-Dec-16 05:33N 22°26' E 113°43'1 0.5
2014-Dec-16 04:21N 22°25' E 113°43'1721.0
2014-Dec-16 03:32N 22°10' E 113°35'1515.1
2014-Dec-16 02:33N 22°23' E 113°42'3 2.0
2014-Dec-16 01:07N 22°26' E 113°43'1817.5
2014-Dec-16 00:06N 22°10' E 113°35'0 0.0
2014-Dec-15 23:12N 22°10' E 113°35'0 0.0
2014-Dec-15 22:18N 22°10' E 113°35'0 0.0
2014-Dec-15 21:30N 22°10' E 113°35'0 0.0
2014-Dec-15 20:30N 22°10' E 113°35'0 0.0
2014-Dec-15 19:18N 22°10' E 113°35'0 0.0
2014-Dec-15 18:12N 22°10' E 113°35'0 0.0
2014-Dec-15 17:30N 22°10' E 113°35'0 0.0
2014-Dec-15 16:30N 22°10' E 113°35'0 0.0
2014-Dec-15 15:30N 22°10' E 113°35'0 0.0
2014-Dec-15 14:30N 22°10' E 113°35'0 0.0
2014-Dec-15 13:30N 22°10' E 113°35'0 0.0
2014-Dec-15 12:22N 22°10' E 113°35'1822.5
2014-Dec-15 11:33N 22°26' E 113°43'5 4.6
2014-Dec-15 10:33N 22°30' E 113°46'2121.4
2014-Dec-15 09:33N 22°12' E 113°34'1716.4
2014-Dec-15 08:33N 22°26' E 113°43'5 4.7
2014-Dec-15 07:33N 22°30' E 113°45'2119.9
2014-Dec-15 06:30N 22°12' E 113°34'1717.9
2014-Dec-15 05:33N 22°26' E 113°43'5 5.1
2014-Dec-15 04:33N 22°31' E 113°46'2323.4
2014-Dec-15 03:33N 22°10' E 113°35'1413.8
2014-Dec-15 02:33N 22°22' E 113°42'1311.5
2014-Dec-15 01:22N 22°34' E 113°48'2126.2
2014-Dec-15 00:34N 22°15' E 113°39'6 5.9
2014-Dec-14 23:30N 22°10' E 113°35'0 0.0
2014-Dec-14 22:30N 22°10' E 113°35'0 0.0
2014-Dec-14 21:30N 22°10' E 113°35'0 0.0
2014-Dec-14 20:06N 22°10' E 113°35'0 0.0
2014-Dec-14 19:30N 22°10' E 113°35'0 0.0
2014-Dec-14 18:30N 22°10' E 113°35'0 0.0
2014-Dec-14 17:18N 22°10' E 113°35'0 0.0
2014-Dec-14 16:30N 22°10' E 113°35'0 0.0
2014-Dec-14 15:30N 22°10' E 113°35'0 0.0
2014-Dec-14 14:30N 22°10' E 113°35'0 0.0
2014-Dec-14 13:24N 22°10' E 113°35'0 0.0
2014-Dec-14 12:30N 22°10' E 113°35'2121.7
2014-Dec-14 11:33N 22°28' E 113°45'2 1.9
2014-Dec-14 10:25N 22°27' E 113°44'1719.0
2014-Dec-14 09:30N 22°12' E 113°34'1617.0
2014-Dec-14 08:33N 22°25' E 113°43'2 2.1
2014-Dec-14 07:32N 22°27' E 113°44'1818.5
2014-Dec-14 06:33N 22°12' E 113°34'1919.2
2014-Dec-14 05:33N 22°28' E 113°44'1 0.6
2014-Dec-14 04:27N 22°27' E 113°44'2021.7
2014-Dec-14 03:33N 22°10' E 113°35'1514.8
2014-Dec-14 02:33N 22°23' E 113°42'1311.8
2014-Dec-14 01:27N 22°35' E 113°48'2326.2
2014-Dec-14 00:34N 22°13' E 113°39'5 4.8
2014-Dec-13 23:29N 22°10' E 113°35'0 0.0
2014-Dec-13 22:29N 22°10' E 113°35'0 0.0
2014-Dec-13 21:29N 22°10' E 113°35'0 0.0
2014-Dec-13 20:29N 22°10' E 113°35'0 0.0
2014-Dec-13 19:17N 22°10' E 113°35'0 0.0
2014-Dec-13 18:29N 22°10' E 113°35'0 0.0
2014-Dec-13 17:23N 22°10' E 113°35'0 0.0
2014-Dec-13 16:23N 22°10' E 113°35'0 0.0
2014-Dec-13 15:23N 22°10' E 113°35'0 0.0
2014-Dec-13 14:23N 22°10' E 113°35'0 0.0
2014-Dec-13 13:29N 22°10' E 113°35'0 0.0
2014-Dec-13 12:29N 22°10' E 113°35'1818.6
2014-Dec-13 11:32N 22°26' E 113°43'2 1.9
2014-Dec-13 10:27N 22°27' E 113°44'1920.7
2014-Dec-13 09:34N 22°12' E 113°34'1414.0
2014-Dec-13 08:34N 22°23' E 113°42'6 6.0
2014-Dec-13 07:32N 22°29' E 113°45'2020.1
2014-Dec-13 06:33N 22°12' E 113°34'1716.8
2014-Dec-13 05:33N 22°26' E 113°43'5 5.3
2014-Dec-13 04:33N 22°31' E 113°46'2323.3
2014-Dec-13 03:33N 22°10' E 113°35'1515.1
2014-Dec-13 02:33N 22°24' E 113°42'1311.6
2014-Dec-13 01:28N 22°35' E 113°48'2426.3
2014-Dec-13 00:33N 22°12' E 113°39'4 4.4
2014-Dec-12 23:33N 22°10' E 113°35'0 0.0
2014-Dec-12 22:21N 22°10' E 113°35'0 0.0
2014-Dec-12 21:21N 22°10' E 113°35'0 0.0
2014-Dec-12 20:33N 22°10' E 113°35'0 0.0
2014-Dec-12 19:33N 22°10' E 113°35'0 0.0
2014-Dec-12 18:27N 22°10' E 113°35'0 0.0
2014-Dec-12 17:27N 22°10' E 113°35'0 0.0
2014-Dec-12 16:27N 22°10' E 113°35'0 0.0
2014-Dec-12 15:33N 22°10' E 113°35'0 0.0
2014-Dec-12 14:33N 22°10' E 113°35'0 0.0
2014-Dec-12 13:27N 22°10' E 113°35'1 0.6
2014-Dec-12 12:33N 22°10' E 113°35'2718.1
2014-Dec-12 11:03N 22°35' E 113°48'1425.0
2014-Dec-12 10:31N 22°22' E 113°42'1313.4
2014-Dec-12 09:33N 22°12' E 113°34'  
Track history (hours):
 
Tides and Currents Weather Stations Pressure Air Temp Water Temp Dewpoint Dewpoint Depression Visibility Wind Speed Wind Dir Waves Ship Positions

Xunlong5

Last reported at 2014-Dec-22 09:23 UTC. Time now 2014-Dec-22 09:57 UTC.
Position N 22°12' E 113°34'.

Length 34 m; draft 1.4 m.

Type: High speed craft. MMSI: 413471870.

Date/timePositionNaut miles runAvg speedWind from/ knotsBaromVisibWave heightAir tempDewpointWater temp
2014-Dec-22 09:23N 22°12' E 113°34'1518.0
2014-Dec-22 08:32N 22°25' E 113°43'1 0.5
2014-Dec-22 07:17N 22°24' E 113°43'1519.7
2014-Dec-22 06:32N 22°12' E 113°34'1514.5
2014-Dec-22 05:32N 22°24' E 113°42'3 2.3
2014-Dec-22 04:23N 22°26' E 113°44'1822.0
2014-Dec-22 03:33N 22°10' E 113°35'1515.1
2014-Dec-22 02:33N 22°23' E 113°42'9 7.2
2014-Dec-22 01:15N 22°32' E 113°46'1927.8
2014-Dec-22 00:33N 22°14' E 113°39'5 2.4
2014-Dec-21 22:17N 22°10' E 113°35'0 0.0
2014-Dec-21 21:29N 22°10' E 113°35'0 0.0
2014-Dec-21 20:29N 22°10' E 113°35'0 0.0
2014-Dec-21 19:29N 22°10' E 113°35'0 0.0
2014-Dec-21 18:29N 22°10' E 113°35'0 0.0
2014-Dec-21 17:05N 22°10' E 113°35'0 0.0
2014-Dec-21 16:29N 22°10' E 113°35'0 0.0
2014-Dec-21 15:29N 22°10' E 113°35'0 0.0
2014-Dec-21 14:29N 22°10' E 113°35'0 0.0
2014-Dec-21 13:29N 22°10' E 113°35'0 0.0
2014-Dec-21 12:27N 22°10' E 113°35'1820.6
2014-Dec-21 11:33N 22°26' E 113°44'2 1.6
2014-Dec-21 10:29N 22°28' E 113°44'1920.1
2014-Dec-21 09:33N 22°12' E 113°34'1817.4
2014-Dec-21 08:33N 22°27' E 113°44'1 0.6
2014-Dec-21 07:31N 22°27' E 113°44'1814.7
2014-Dec-21 06:17N 22°12' E 113°34'1722.9
2014-Dec-21 05:33N 22°26' E 113°43'1 1.0
2014-Dec-21 04:29N 22°27' E 113°44'1920.3
2014-Dec-21 03:33N 22°10' E 113°35'1514.7
2014-Dec-21 02:31N 22°24' E 113°42'6 4.8
2014-Dec-21 01:10N 22°29' E 113°45'1727.3
2014-Dec-21 00:33N 22°13' E 113°39'5 4.7
2014-Dec-20 23:26N 22°10' E 113°35'0 0.0
2014-Dec-20 21:31N 22°10' E 113°35'0 0.0
2014-Dec-20 20:13N 22°10' E 113°35'0 0.0
2014-Dec-20 19:31N 22°10' E 113°35'0 0.0
2014-Dec-20 18:25N 22°10' E 113°35'0 0.0
2014-Dec-20 17:25N 22°10' E 113°35'0 0.0
2014-Dec-20 16:31N 22°10' E 113°35'0 0.0
2014-Dec-20 15:31N 22°10' E 113°35'0 0.0
2014-Dec-20 14:32N 22°10' E 113°35'0 0.0
2014-Dec-20 13:31N 22°10' E 113°35'0 0.0
2014-Dec-20 12:33N 22°10' E 113°35'2020.0
2014-Dec-20 11:34N 22°27' E 113°44'0 0.2
2014-Dec-20 10:33N 22°27' E 113°44'1817.8
2014-Dec-20 09:31N 22°12' E 113°34'1717.6
2014-Dec-20 08:33N 22°26' E 113°44'1 0.8
2014-Dec-20 07:25N 22°27' E 113°44'1820.9
2014-Dec-20 06:33N 22°12' E 113°34'1615.7
2014-Dec-20 05:32N 22°25' E 113°43'2 1.7
2014-Dec-20 04:24N 22°27' E 113°44'1922.4
2014-Dec-20 03:33N 22°10' E 113°35'1514.4
2014-Dec-20 02:32N 22°23' E 113°42'13 6.4
2014-Dec-20 00:33N 22°11' E 113°38'3 2.8
2014-Dec-19 23:24N 22°10' E 113°35'0 0.0
2014-Dec-19 22:24N 22°10' E 113°35'0 0.0
2014-Dec-19 21:30N 22°10' E 113°35'0 0.0
2014-Dec-19 20:30N 22°10' E 113°35'0 0.0
2014-Dec-19 19:30N 22°10' E 113°35'0 0.0
2014-Dec-19 18:12N 22°10' E 113°35'0 0.0
2014-Dec-19 17:30N 22°10' E 113°35'0 0.0
2014-Dec-19 16:30N 22°10' E 113°35'0 0.0
2014-Dec-19 15:30N 22°10' E 113°35'0 0.0
2014-Dec-19 14:30N 22°10' E 113°35'0 0.0
2014-Dec-19 13:10N 22°10' E 113°35'0 0.0
2014-Dec-19 12:32N 22°10' E 113°35'2020.1
2014-Dec-19 11:33N 22°28' E 113°44'7 5.5
2014-Dec-19 10:16N 22°21' E 113°41'1116.1
2014-Dec-19 09:33N 22°12' E 113°34'1717.2
2014-Dec-19 08:33N 22°26' E 113°44'9 6.0
2014-Dec-19 07:06N 22°18' E 113°40'915.9
2014-Dec-19 06:33N 22°12' E 113°34'1916.3
2014-Dec-19 05:24N 22°28' E 113°44'2010.7
2014-Dec-19 03:33N 22°10' E 113°36'3 0.9
2014-Dec-19 00:33N 22°11' E 113°38'4 3.1
2014-Dec-18 23:21N 22°10' E 113°35'0 0.0
2014-Dec-18 22:33N 22°10' E 113°35'0 0.0
2014-Dec-18 21:27N 22°10' E 113°35'0 0.0
2014-Dec-18 20:27N 22°10' E 113°35'0 0.0
2014-Dec-18 19:33N 22°10' E 113°35'0 0.0
2014-Dec-18 18:21N 22°10' E 113°35'0 0.0
2014-Dec-18 17:33N 22°10' E 113°35'0 0.0
2014-Dec-18 16:33N 22°10' E 113°35'0 0.0
2014-Dec-18 15:27N 22°10' E 113°35'0 0.0
2014-Dec-18 14:21N 22°10' E 113°35'0 0.0
2014-Dec-18 13:09N 22°10' E 113°35'0 0.0
2014-Dec-18 12:27N 22°10' E 113°35'1819.8
2014-Dec-18 11:33N 22°26' E 113°44'2 1.6
2014-Dec-18 10:31N 22°27' E 113°44'1819.0
2014-Dec-18 09:33N 22°12' E 113°34'1818.5
2014-Dec-18 08:33N 22°27' E 113°44'8 6.1
2014-Dec-18 07:17N 22°20' E 113°41'1114.5
2014-Dec-18 06:33N 22°12' E 113°34'1818.0
2014-Dec-18 05:33N 22°27' E 113°44'4 3.2
2014-Dec-18 04:18N 22°23' E 113°42'1520.1
2014-Dec-18 03:33N 22°10' E 113°35'1615.5
2014-Dec-18 02:33N 22°24' E 113°42'9 7.4
2014-Dec-18 01:20N 22°32' E 113°46'2026.3
2014-Dec-18 00:34N 22°13' E 113°39'5 4.6
2014-Dec-17 23:31N 22°10' E 113°35'0 0.0
2014-Dec-17 21:19N 22°10' E 113°35'0 0.0
2014-Dec-17 20:25N 22°10' E 113°35'0 0.0
2014-Dec-17 19:31N 22°10' E 113°35'0 0.0
2014-Dec-17 18:31N 22°10' E 113°35'0 0.0
2014-Dec-17 17:31N 22°10' E 113°35'0 0.0
2014-Dec-17 16:31N 22°10' E 113°35'0 0.0
2014-Dec-17 15:31N 22°10' E 113°35'0 0.0
2014-Dec-17 14:25N 22°10' E 113°35'0 0.0
2014-Dec-17 13:31N 22°10' E 113°35'0 0.0
2014-Dec-17 12:19N 22°10' E 113°35'1620.7
2014-Dec-17 11:33N 22°24' E 113°43'7 7.3
2014-Dec-17 10:33N 22°31' E 113°46'2222.2
2014-Dec-17 09:33N 22°12' E 113°34'1515.2
2014-Dec-17 08:33N 22°24' E 113°43'4 3.3
2014-Dec-17 07:26N 22°28' E 113°44'1921.0
2014-Dec-17 06:33N 22°12' E 113°34'1515.3
2014-Dec-17 05:33N 22°24' E 113°43'4 3.3
2014-Dec-17 04:30N 22°28' E 113°44'2020.4
2014-Dec-17 03:32N 22°10' E 113°35'1515.4
2014-Dec-17 02:33N 22°23' E 113°43'11 9.9
2014-Dec-17 01:25N 22°34' E 113°47'2225.6
2014-Dec-17 00:33N 22°13' E 113°39'5 4.4
2014-Dec-16 23:29N 22°10' E 113°35'0 0.0
2014-Dec-16 22:29N 22°10' E 113°35'0 0.0
2014-Dec-16 21:11N 22°10' E 113°35'0 0.0
2014-Dec-16 20:29N 22°10' E 113°35'0 0.0
2014-Dec-16 19:29N 22°10' E 113°35'0 0.0
2014-Dec-16 18:29N 22°10' E 113°35'0 0.0
2014-Dec-16 17:29N 22°10' E 113°35'0 0.0
2014-Dec-16 16:23N 22°10' E 113°35'0 0.0
2014-Dec-16 15:23N 22°10' E 113°35'0 0.0
2014-Dec-16 14:29N 22°10' E 113°35'0 0.0
2014-Dec-16 13:29N 22°10' E 113°35'0 0.0
2014-Dec-16 12:33N 22°10' E 113°35'2121.4
2014-Dec-16 11:33N 22°29' E 113°46'6 5.3
2014-Dec-16 10:28N 22°24' E 113°42'1415.7
2014-Dec-16 09:33N 22°12' E 113°34'2120.6
2014-Dec-16 08:34N 22°29' E 113°45'2 1.9
2014-Dec-16 07:32N 22°28' E 113°44'1916.5
2014-Dec-16 06:25N 22°12' E 113°34'1619.1
2014-Dec-16 05:33N 22°26' E 113°43'1 0.5
2014-Dec-16 04:21N 22°25' E 113°43'1721.0
2014-Dec-16 03:32N 22°10' E 113°35'1515.1
2014-Dec-16 02:33N 22°23' E 113°42'3 2.0
2014-Dec-16 01:07N 22°26' E 113°43'1817.5
2014-Dec-16 00:06N 22°10' E 113°35'0 0.0
2014-Dec-15 23:12N 22°10' E 113°35'0 0.0
2014-Dec-15 22:18N 22°10' E 113°35'0 0.0
2014-Dec-15 21:30N 22°10' E 113°35'0 0.0
2014-Dec-15 20:30N 22°10' E 113°35'0 0.0
2014-Dec-15 19:18N 22°10' E 113°35'0 0.0
2014-Dec-15 18:12N 22°10' E 113°35'0 0.0
2014-Dec-15 17:30N 22°10' E 113°35'0 0.0
2014-Dec-15 16:30N 22°10' E 113°35'0 0.0
2014-Dec-15 15:30N 22°10' E 113°35'0 0.0
2014-Dec-15 14:30N 22°10' E 113°35'0 0.0
2014-Dec-15 13:30N 22°10' E 113°35'0 0.0
2014-Dec-15 12:22N 22°10' E 113°35'1822.5
2014-Dec-15 11:33N 22°26' E 113°43'5 4.6
2014-Dec-15 10:33N 22°30' E 113°46'2121.4
2014-Dec-15 09:33N 22°12' E 113°34'1716.4
2014-Dec-15 08:33N 22°26' E 113°43'5 4.7
2014-Dec-15 07:33N 22°30' E 113°45'2119.9
2014-Dec-15 06:30N 22°12' E 113°34'1717.9
2014-Dec-15 05:33N 22°26' E 113°43'5 5.1
2014-Dec-15 04:33N 22°31' E 113°46'2323.4
2014-Dec-15 03:33N 22°10' E 113°35'1413.8
2014-Dec-15 02:33N 22°22' E 113°42'1311.5
2014-Dec-15 01:22N 22°34' E 113°48'2126.2
2014-Dec-15 00:34N 22°15' E 113°39'6 5.9
2014-Dec-14 23:30N 22°10' E 113°35'0 0.0
2014-Dec-14 22:30N 22°10' E 113°35'0 0.0
2014-Dec-14 21:30N 22°10' E 113°35'0 0.0
2014-Dec-14 20:06N 22°10' E 113°35'0 0.0
2014-Dec-14 19:30N 22°10' E 113°35'0 0.0
2014-Dec-14 18:30N 22°10' E 113°35'0 0.0
2014-Dec-14 17:18N 22°10' E 113°35'0 0.0
2014-Dec-14 16:30N 22°10' E 113°35'0 0.0
2014-Dec-14 15:30N 22°10' E 113°35'0 0.0
2014-Dec-14 14:30N 22°10' E 113°35'0 0.0
2014-Dec-14 13:24N 22°10' E 113°35'0 0.0
2014-Dec-14 12:30N 22°10' E 113°35'2121.7
2014-Dec-14 11:33N 22°28' E 113°45'2 1.9
2014-Dec-14 10:25N 22°27' E 113°44'1719.0
2014-Dec-14 09:30N 22°12' E 113°34'1617.0
2014-Dec-14 08:33N 22°25' E 113°43'2 2.1
2014-Dec-14 07:32N 22°27' E 113°44'1818.5
2014-Dec-14 06:33N 22°12' E 113°34'1919.2
2014-Dec-14 05:33N 22°28' E 113°44'1 0.6
2014-Dec-14 04:27N 22°27' E 113°44'2021.7
2014-Dec-14 03:33N 22°10' E 113°35'1514.8
2014-Dec-14 02:33N 22°23' E 113°42'1311.8
2014-Dec-14 01:27N 22°35' E 113°48'2326.2
2014-Dec-14 00:34N 22°13' E 113°39'5 4.8
2014-Dec-13 23:29N 22°10' E 113°35'0 0.0
2014-Dec-13 22:29N 22°10' E 113°35'0 0.0
2014-Dec-13 21:29N 22°10' E 113°35'0 0.0
2014-Dec-13 20:29N 22°10' E 113°35'0 0.0
2014-Dec-13 19:17N 22°10' E 113°35'0 0.0
2014-Dec-13 18:29N 22°10' E 113°35'0 0.0
2014-Dec-13 17:23N 22°10' E 113°35'0 0.0
2014-Dec-13 16:23N 22°10' E 113°35'0 0.0
2014-Dec-13 15:23N 22°10' E 113°35'0 0.0
2014-Dec-13 14:23N 22°10' E 113°35'0 0.0
2014-Dec-13 13:29N 22°10' E 113°35'0 0.0
2014-Dec-13 12:29N 22°10' E 113°35'1818.6
2014-Dec-13 11:32N 22°26' E 113°43'2 1.9
2014-Dec-13 10:27N 22°27' E 113°44'1920.7
2014-Dec-13 09:34N 22°12' E 113°34'1414.0
2014-Dec-13 08:34N 22°23' E 113°42'6 6.0
2014-Dec-13 07:32N 22°29' E 113°45'2020.1
2014-Dec-13 06:33N 22°12' E 113°34'1716.8
2014-Dec-13 05:33N 22°26' E 113°43'5 5.3
2014-Dec-13 04:33N 22°31' E 113°46'2323.3
2014-Dec-13 03:33N 22°10' E 113°35'1515.1
2014-Dec-13 02:33N 22°24' E 113°42'1311.6
2014-Dec-13 01:28N 22°35' E 113°48'2426.3
2014-Dec-13 00:33N 22°12' E 113°39'4 4.4
2014-Dec-12 23:33N 22°10' E 113°35'0 0.0
2014-Dec-12 22:21N 22°10' E 113°35'0 0.0
2014-Dec-12 21:21N 22°10' E 113°35'0 0.0
2014-Dec-12 20:33N 22°10' E 113°35'0 0.0
2014-Dec-12 19:33N 22°10' E 113°35'0 0.0
2014-Dec-12 18:27N 22°10' E 113°35'0 0.0
2014-Dec-12 17:27N 22°10' E 113°35'0 0.0
2014-Dec-12 16:27N 22°10' E 113°35'0 0.0
2014-Dec-12 15:33N 22°10' E 113°35'0 0.0
2014-Dec-12 14:33N 22°10' E 113°35'0 0.0
2014-Dec-12 13:27N 22°10' E 113°35'1 0.6
2014-Dec-12 12:33N 22°10' E 113°35'2718.1
2014-Dec-12 11:03N 22°35' E 113°48'1425.0
2014-Dec-12 10:31N 22°22' E 113°42'1313.4
2014-Dec-12 09:33N 22°12' E 113°34'  

Dump ship's entire track history